Flight Track Log - Related Links

Times and Time Zones

All times are in EDT time to prevent confusion due to time zone crossing. See the N52522 flight status page for this flight to view local times or setup timezone preferences in your user account.

Time Position Orientation Groundspeed Altitude Reporting Facility
EDT Latitude Longitude Course Direction KTS MPH feet Rate Location/Type
Thu 10:26:35 AM 42.2261 -83.5444 229° Southwest 72 83 1,000  Level Cleveland Center
Thu 10:28:00 AM 42.2067 -83.5742 229° Southwest 70 81 1,900 612 Climbing Cleveland Center
Thu 10:29:02 AM 42.1914 -83.5933 223° Southwest 74 85 2,500 558 Climbing Cleveland Center
Thu 10:30:09 AM 42.1953 -83.6075 290° West 75 86 3,100 233 Climbing Cleveland Center
Thu 10:31:11 AM 42.2186 -83.5944 23° Northeast 93 107 3,000 -51 Descending Cleveland Center
Thu 10:32:06 AM 42.2417 -83.5844 18° North 98 113 3,000  Level Cleveland Center
Thu 10:33:13 AM 42.2672 -83.5686 25° Northeast 94 108 3,000  Level Cleveland Center
Thu 10:34:15 AM 42.2906 -83.5531 26° Northeast 94 108 3,000 54 Level Cleveland Center
Thu 10:35:04 AM 42.3075 -83.5397 30° Northeast 90 104 3,100  Climbing Cleveland Center
Thu 10:36:18 AM 42.3392 -83.5244 20° North 95 109 3,000 -47 Descending Cleveland Center
Thu 10:37:13 AM 42.3586 -83.5028 39° Northeast 101 116 3,000  Level Cleveland Center
Thu 10:38:08 AM 42.3758 -83.4783 46° Northeast 103 119 3,000  Level Cleveland Center
Thu 10:39:15 AM 42.3994 -83.4542 37° Northeast 103 119 3,000  Level Cleveland Center
Thu 10:40:17 AM 42.4003 -83.4203 88° East 119 137 3,000  Level Cleveland Center
Thu 10:41:18 AM 42.3789 -83.4419 217° Southwest 96 110 3,000  Level Cleveland Center
Thu 10:42:19 AM 42.3675 -83.4722 243° Southwest 90 104 3,000  Level Cleveland Center
Thu 10:43:14 AM 42.3522 -83.4997 233° Southwest 94 108 3,000 -49 Level Cleveland Center
Thu 10:44:22 AM 42.3328 -83.5353 234° Southwest 102 117 2,900 -195 Descending Cleveland Center
Thu 10:45:17 AM 42.3194 -83.5628 237° Southwest 100 115 2,600 -256 Descending Cleveland Center
Thu 10:46:19 AM 42.3042 -83.5900 233° Southwest 93 107 2,400 -47 Descending Cleveland Center
Thu 10:47:26 AM 42.2864 -83.6258 236° Southwest 107 123 2,500 47 Climbing Cleveland Center
Thu 10:48:27 AM 42.2711 -83.6531 233° Southwest 97 112 2,500 -281 Level Cleveland Center
Thu 10:49:34 AM 42.2536 -83.6831 232° Southwest 84 97 1,900 -465 Descending Cleveland Center
Thu 10:50:36 AM 42.2406 -83.7078 235° Southwest 83 96 1,500 -341 Descending Cleveland Center
Thu 10:51:37 AM 42.2272 -83.7378 239° Southwest 85 98 1,200 108 Descending Cleveland Center
Thu 10:52:27 AM 42.2183 -83.7542 234° Southwest 78 90 1,700 615 Climbing Cleveland Center
Thu 10:53:34 AM 42.2028 -83.7872 238° Southwest 86 99 2,400 609 Climbing Cleveland Center
Thu 10:54:35 AM 42.2000 -83.8206 264° West 88 101 3,000 341 Climbing Cleveland Center
Thu 10:55:37 AM 42.1928 -83.8511 252° West 94 108 3,100 244 Climbing Cleveland Center
Thu 10:56:38 AM 42.2175 -83.8636 339° North 90 104 3,500 466 Climbing Cleveland Center
Thu 10:57:33 AM 42.2342 -83.8589 12° North 66 76 4,000 244 Climbing Cleveland Center
Thu 10:58:41 AM 42.2581 -83.8319 40° Northeast 119 137 4,000  Level Cleveland Center
Thu 10:59:42 AM 42.2797 -83.8022 45° Northeast 114 131 4,000  Level Cleveland Center
Thu 11:00:37 AM 42.2972 -83.7694 54° Northeast 118 136 4,000  Level Cleveland Center
Thu 11:01:44 AM 42.3089 -83.7222 72° East 118 136 4,000 -98 Level Cleveland Center
Thu 11:02:39 AM 42.3225 -83.6836 64° Northeast 120 138 3,800 -293 Descending Cleveland Center
Thu 11:03:47 AM 42.3342 -83.6364 72° East 127 146 3,400 -353 Descending Cleveland Center

Login

Don't have an account? Register now (free) for customized features, flight alerts, and more!